Menno, South Dakota
Current Conditions -  °F | °C
As of 8:35 AM on Saturday 20 Dec 2014 (Local Time) from KYKN Reporting Station
Overcast Overcast  
Wind Chill: 26°   Ceiling: 1000
Heat Index: 34°   Visibility: 5mi
Dew Point: 28°   Wind: 9mph
Humidity: 81%   Direction: 160°SSE
Pressure: 30.08"   Gusts: NA
Location:  43.24°N, 97.58°W
Report Text: KYKN 201435Z AUTO 16008KT 5SM OVC010 01/M02 A3008 RMK AO1
Loading
Personal Weather Stations






























Interactive Weather Map New forecast layout! Learn more

10-Day Weather Forecast

Advertisements
Track Severe Weather on mobile